createdAt,value
2023-04-10T00:02:26.138Z,45.83
2023-04-10T00:04:53.374Z,46.40
2023-04-10T00:07:20.342Z,45.50
2023-04-10T00:09:47.114Z,47.53
2023-04-10T00:12:15.527Z,48.05
2023-04-10T00:14:42.378Z,48.33
2023-04-10T00:17:09.286Z,48.20
2023-04-10T00:19:36.239Z,48.72
2023-04-10T00:22:03.089Z,48.30
2023-04-10T00:24:29.838Z,49.95
2023-04-10T00:26:57.558Z,47.97
2023-04-10T00:29:24.777Z,49.75
2023-04-10T00:31:51.621Z,49.65
2023-04-10T00:34:18.385Z,49.90
2023-04-10T00:36:46.365Z,50.35
2023-04-10T00:39:14.147Z,50.92
2023-04-10T00:41:40.925Z,49.65
2023-04-10T00:44:08.483Z,48.83
2023-04-10T00:46:39.347Z,48.60
2023-04-10T00:49:06.433Z,50.28
2023-04-10T00:51:33.707Z,51.97
2023-04-10T00:54:02.172Z,52.28
2023-04-10T00:56:31.978Z,50.60
2023-04-10T00:58:58.666Z,49.15
2023-04-10T01:01:26.065Z,49.63
2023-04-10T01:03:54.387Z,49.05
2023-04-10T01:06:40.611Z,47.75
2023-04-10T01:09:30.310Z,47.97
2023-04-10T01:12:11.376Z,47.55
2023-04-10T01:15:12.878Z,50.88
2023-04-10T01:18:01.448Z,49.90
2023-04-10T01:20:34.621Z,51.03
2023-04-10T01:23:29.050Z,49.53
2023-04-10T01:26:04.316Z,49.90
2023-04-10T01:29:07.804Z,49.15
2023-04-10T01:31:42.522Z,49.25
2023-04-10T01:34:16.115Z,50.50
2023-04-10T01:37:08.935Z,49.58
2023-04-10T01:39:39.936Z,52.08
2023-04-10T01:42:08.995Z,49.00
2023-04-10T01:44:42.992Z,48.72
2023-04-10T01:47:10.169Z,49.38
2023-04-10T01:49:44.384Z,49.47
2023-04-10T01:52:13.031Z,48.75
2023-04-10T01:54:43.264Z,49.65
2023-04-10T01:59:51.458Z,51.53
2023-04-10T02:02:18.430Z,50.92
2023-04-10T02:04:51.374Z,51.30
2023-04-10T02:07:30.110Z,49.53
2023-04-10T02:10:11.613Z,47.85
2023-04-10T02:13:01.228Z,49.15
2023-04-10T02:15:32.437Z,50.80
2023-04-10T02:18:00.748Z,48.80
2023-04-10T02:20:27.618Z,50.65
2023-04-10T02:22:55.552Z,47.85
2023-04-10T02:25:22.313Z,50.72
2023-04-10T02:27:49.076Z,50.10
2023-04-10T02:30:16.451Z,47.78
2023-04-10T02:32:44.117Z,48.10
2023-04-10T02:35:11.101Z,48.40
2023-04-10T02:37:38.071Z,49.78
2023-04-10T02:40:05.665Z,49.60
2023-04-10T02:42:42.501Z,47.05
2023-04-10T02:45:10.880Z,48.60
2023-04-10T02:47:41.756Z,47.65
2023-04-10T02:50:09.159Z,48.72
2023-04-10T02:52:38.935Z,50.95
2023-04-10T02:55:06.328Z,47.92
2023-04-10T02:57:36.665Z,50.92
2023-04-10T03:00:05.205Z,49.60
2023-04-10T03:02:53.983Z,48.47
2023-04-10T03:05:21.596Z,47.60
2023-04-10T03:07:48.677Z,51.95
2023-04-10T03:10:15.811Z,50.83
2023-04-10T03:12:42.583Z,51.13
2023-04-10T03:15:09.992Z,50.75
2023-04-10T03:17:36.706Z,50.70
2023-04-10T03:20:03.541Z,48.13
2023-04-10T03:22:33.024Z,52.30
2023-04-10T03:25:00.301Z,49.30
2023-04-10T03:27:27.217Z,49.40
2023-04-10T03:29:53.929Z,49.38
2023-04-10T03:32:20.807Z,52.58
2023-04-10T03:34:47.628Z,50.45
2023-04-10T03:37:14.386Z,52.10
2023-04-10T03:39:41.485Z,49.72
2023-04-10T03:42:08.341Z,50.95
2023-04-10T03:44:35.808Z,53.20
2023-04-10T03:47:02.778Z,51.05
2023-04-10T03:49:30.718Z,52.85
2023-04-10T03:52:04.152Z,50.58
2023-04-10T03:54:31.052Z,51.00
2023-04-10T03:56:58.315Z,53.10
2023-04-10T03:59:37.923Z,52.13
2023-04-10T04:02:07.839Z,54.97
2023-04-10T04:04:35.159Z,52.22
2023-04-10T04:07:21.920Z,52.38
2023-04-10T04:10:00.520Z,54.08
2023-04-10T04:12:56.896Z,50.78
2023-04-10T04:15:38.717Z,53.07
2023-04-10T04:18:17.712Z,50.97
2023-04-10T04:20:52.386Z,52.95
2023-04-10T04:23:36.088Z,52.25
2023-04-10T04:26:06.860Z,52.30
2023-04-10T04:28:50.479Z,52.35
2023-04-10T04:31:36.266Z,50.55
2023-04-10T04:34:14.058Z,51.53
2023-04-10T04:36:49.587Z,51.65
2023-04-10T04:39:39.017Z,50.70
2023-04-10T04:42:38.262Z,49.15
2023-04-10T04:45:15.380Z,53.30
2023-04-10T04:48:00.708Z,47.75
2023-04-10T04:50:43.404Z,52.25
2023-04-10T04:53:17.980Z,51.50
2023-04-10T04:56:01.183Z,49.17
2023-04-10T04:58:46.471Z,49.35
2023-04-10T05:01:35.415Z,48.58
2023-04-10T05:04:08.435Z,50.40
2023-04-10T05:06:58.245Z,50.92
2023-04-10T05:09:47.855Z,49.70
2023-04-10T05:12:23.881Z,50.13
2023-04-10T05:15:02.491Z,48.80
2023-04-10T05:17:37.005Z,49.47
2023-04-10T05:20:19.687Z,48.17
2023-04-10T05:23:16.578Z,47.95
2023-04-10T05:25:46.191Z,50.75
2023-04-10T05:28:19.835Z,48.03
2023-04-10T05:30:57.504Z,49.05
2023-04-10T05:33:56.773Z,46.97
2023-04-10T05:36:41.570Z,49.03
2023-04-10T05:39:28.762Z,47.58
2023-04-10T05:42:14.051Z,46.70
2023-04-10T05:45:04.189Z,46.17
2023-04-10T05:47:39.225Z,46.05
2023-04-10T05:50:24.620Z,46.53
2023-04-10T05:53:21.425Z,45.35
2023-04-10T05:56:08.744Z,47.97
2023-04-10T05:59:05.228Z,44.95
2023-04-10T06:01:50.791Z,44.45
2023-04-10T06:04:17.730Z,43.72
2023-04-10T06:06:46.282Z,47.05
2023-04-10T06:09:12.996Z,43.53
2023-04-10T06:11:39.720Z,43.25
2023-04-10T06:14:08.036Z,44.55
2023-04-10T06:16:43.182Z,43.83
2023-04-10T06:19:10.104Z,41.58
2023-04-10T06:21:37.195Z,40.95
2023-04-10T06:24:04.380Z,40.40
2023-04-10T06:26:32.606Z,43.72
2023-04-10T06:29:00.730Z,41.42
2023-04-10T06:31:27.776Z,39.05
2023-04-10T06:33:56.489Z,39.67
2023-04-10T06:36:23.686Z,40.10
2023-04-10T06:38:59.540Z,40.78
2023-04-10T06:41:26.625Z,39.80
2023-04-10T06:43:55.387Z,40.15
2023-04-10T06:46:22.501Z,40.65
2023-04-10T06:48:52.717Z,37.15
2023-04-10T06:51:19.691Z,37.47
2023-04-10T06:53:50.493Z,37.83
2023-04-10T06:56:17.511Z,37.15
2023-04-10T06:58:44.201Z,37.70
2023-04-10T07:01:11.057Z,34.50
2023-04-10T07:03:38.340Z,34.95
2023-04-10T07:06:05.788Z,34.95
2023-04-10T07:08:32.704Z,33.88
2023-04-10T07:11:02.650Z,34.63
2023-04-10T07:13:32.688Z,31.98
2023-04-10T07:16:04.637Z,33.47
2023-04-10T07:18:31.792Z,32.97
2023-04-10T07:20:58.686Z,33.35
2023-04-10T07:23:25.476Z,31.65
2023-04-10T07:25:52.908Z,30.65
2023-04-10T07:28:22.034Z,31.35
2023-04-10T07:30:48.784Z,30.75
2023-04-10T07:33:15.712Z,31.15
2023-04-10T07:35:42.816Z,31.00
2023-04-10T07:38:13.180Z,30.33
2023-04-10T07:40:39.953Z,31.08
2023-04-10T07:43:07.301Z,29.90
2023-04-10T07:45:41.341Z,30.20
2023-04-10T07:48:14.819Z,28.27
2023-04-10T07:50:42.084Z,28.05
2023-04-10T07:53:08.977Z,27.40
2023-04-10T07:55:39.590Z,27.00
2023-04-10T07:58:06.476Z,29.20
2023-04-10T08:00:34.121Z,26.30
2023-04-10T08:03:01.767Z,26.40
2023-04-10T08:05:28.842Z,27.17
2023-04-10T08:07:55.835Z,26.40
2023-04-10T08:10:22.727Z,27.35
2023-04-10T08:12:49.485Z,26.08
2023-04-10T08:15:18.068Z,26.30
2023-04-10T08:17:44.925Z,25.63
2023-04-10T08:20:12.494Z,24.48
2023-04-10T08:22:39.300Z,23.33
2023-04-10T08:25:06.319Z,22.92
2023-04-10T08:27:33.212Z,24.85
2023-04-10T08:29:59.900Z,23.77
2023-04-10T08:32:26.739Z,23.55
2023-04-10T08:34:53.518Z,21.80
2023-04-10T08:37:21.292Z,21.38
2023-04-10T08:39:48.313Z,21.00
2023-04-10T08:42:15.483Z,20.45
2023-04-10T08:44:42.298Z,20.00
2023-04-10T08:47:10.081Z,20.25
2023-04-10T08:49:55.554Z,19.88
2023-04-10T08:52:24.536Z,17.98
2023-04-10T08:54:56.034Z,19.35
2023-04-10T08:57:23.450Z,19.00
2023-04-10T08:59:51.650Z,18.35
2023-04-10T09:02:19.343Z,18.30
2023-04-10T09:04:52.148Z,16.63
2023-04-10T09:09:45.441Z,14.73
2023-04-10T09:12:14.019Z,14.38
2023-04-10T09:14:41.514Z,13.15
2023-04-10T09:17:18.826Z,13.43
2023-04-10T09:19:47.538Z,13.13
2023-04-10T09:22:14.995Z,12.82
2023-04-10T09:24:44.947Z,13.88
2023-04-10T09:27:28.267Z,13.48
2023-04-10T09:29:55.079Z,12.05
2023-04-10T09:32:39.434Z,12.75
2023-04-10T09:35:07.241Z,11.95
2023-04-10T09:37:37.880Z,10.43
2023-04-10T09:40:05.638Z,9.52
2023-04-10T09:42:34.056Z,9.25
2023-04-10T09:45:04.780Z,9.30
2023-04-10T09:47:32.892Z,10.25
2023-04-10T09:50:00.963Z,9.20
2023-04-10T09:52:35.243Z,8.65
2023-04-10T09:55:07.590Z,9.93
2023-04-10T09:57:35.740Z,9.23
2023-04-10T10:00:05.512Z,9.40
2023-04-10T10:02:41.465Z,8.50
2023-04-10T10:05:09.086Z,9.88
2023-04-10T10:07:36.599Z,8.55
2023-04-10T10:10:03.893Z,8.35
2023-04-10T10:12:44.218Z,8.57
2023-04-10T10:15:25.705Z,8.10
2023-04-10T10:18:25.587Z,8.93
2023-04-10T10:20:53.320Z,8.05
2023-04-10T10:23:21.745Z,8.52
2023-04-10T10:25:50.348Z,8.00
2023-04-10T10:28:18.925Z,7.22
2023-04-10T10:30:47.036Z,8.43
2023-04-10T10:33:14.596Z,7.68
2023-04-10T10:35:42.127Z,7.47
2023-04-10T10:38:09.804Z,6.70
2023-04-10T10:41:00.230Z,6.85
2023-04-10T10:43:37.856Z,6.93
2023-04-10T10:46:09.269Z,6.55
2023-04-10T10:48:36.024Z,7.25
2023-04-10T10:51:03.908Z,6.88
2023-04-10T10:53:42.318Z,6.30
2023-04-10T10:56:24.074Z,6.03
2023-04-10T10:58:57.534Z,5.07
2023-04-10T11:01:24.707Z,5.13
2023-04-10T11:03:51.611Z,5.95
2023-04-10T11:06:20.224Z,5.40
2023-04-10T11:08:48.118Z,4.88
2023-04-10T11:11:25.016Z,4.97
2023-04-10T11:13:57.851Z,4.75
2023-04-10T11:16:31.535Z,4.70
2023-04-10T11:19:12.974Z,4.35
2023-04-10T11:22:07.339Z,4.45
2023-04-10T11:24:53.321Z,4.15
2023-04-10T11:27:39.311Z,4.35
2023-04-10T11:30:29.099Z,4.45
2023-04-10T11:32:56.439Z,3.92
2023-04-10T11:35:23.476Z,3.78
2023-04-10T11:37:50.232Z,3.83
2023-04-10T11:40:17.218Z,3.95
2023-04-10T11:42:44.375Z,3.70
2023-04-10T11:45:28.515Z,3.75
2023-04-10T11:47:55.757Z,4.15
2023-04-10T11:50:29.527Z,3.55
2023-04-10T11:52:56.665Z,4.15
2023-04-10T11:55:38.196Z,3.90
2023-04-10T11:58:04.936Z,3.80
2023-04-10T12:00:31.826Z,3.80
2023-04-10T12:02:58.859Z,4.10
2023-04-10T12:05:25.988Z,4.30
2023-04-10T12:07:52.905Z,3.65
2023-04-10T12:10:19.648Z,3.83
2023-04-10T12:12:46.316Z,4.15
2023-04-10T12:15:39.620Z,3.95
2023-04-10T12:18:06.809Z,4.07
2023-04-10T12:20:33.989Z,3.97
2023-04-10T12:23:03.214Z,3.90
2023-04-10T12:25:29.947Z,3.78
2023-04-10T12:27:56.660Z,3.42
2023-04-10T12:30:23.749Z,4.18
2023-04-10T12:32:56.878Z,3.88
2023-04-10T12:35:40.105Z,4.25
2023-04-10T12:38:06.927Z,3.72
2023-04-10T12:40:33.648Z,3.80
2023-04-10T12:43:00.397Z,4.07
2023-04-10T12:45:45.412Z,3.78
2023-04-10T12:48:12.091Z,3.55
2023-04-10T12:50:48.152Z,3.40
2023-04-10T12:53:15.723Z,3.10
2023-04-10T12:55:55.818Z,3.42
2023-04-10T12:58:22.750Z,3.63
2023-04-10T13:00:49.589Z,3.38
2023-04-10T13:03:16.483Z,3.42
2023-04-10T13:05:44.331Z,3.63
2023-04-10T13:08:10.972Z,3.33
2023-04-10T13:10:38.424Z,3.92
2023-04-10T13:13:07.005Z,3.33
2023-04-10T13:15:36.854Z,2.95
2023-04-10T13:18:07.268Z,3.70
2023-04-10T13:20:36.123Z,3.78
2023-04-10T13:23:05.880Z,3.30
2023-04-10T13:25:34.255Z,3.03
2023-04-10T13:28:01.692Z,2.78
2023-04-10T13:30:28.941Z,3.35
2023-04-10T13:32:55.698Z,3.00
2023-04-10T13:35:22.446Z,3.28
2023-04-10T13:37:54.134Z,3.03
2023-04-10T13:40:21.503Z,3.33
2023-04-10T13:42:48.880Z,3.15
2023-04-10T13:45:16.018Z,3.30
2023-04-10T13:47:43.884Z,3.25
2023-04-10T13:50:11.216Z,2.88
2023-04-10T13:52:38.090Z,3.10
2023-04-10T13:55:06.182Z,2.72
2023-04-10T13:57:36.763Z,2.92
2023-04-10T14:00:04.582Z,2.90
2023-04-10T14:02:39.666Z,2.80
2023-04-10T14:05:06.945Z,3.22
2023-04-10T14:07:33.595Z,3.10
2023-04-10T14:10:01.142Z,3.00
2023-04-10T14:12:27.866Z,2.72
2023-04-10T14:14:54.808Z,2.72
2023-04-10T14:17:21.533Z,3.22
2023-04-10T14:19:51.369Z,3.10
2023-04-10T14:22:18.429Z,2.65
2023-04-10T14:24:45.217Z,2.97
2023-04-10T14:27:13.277Z,3.13
2023-04-10T14:32:09.493Z,2.95
2023-04-10T14:34:36.516Z,2.90
2023-04-10T14:37:03.255Z,3.13
2023-04-10T14:39:30.489Z,3.08
2023-04-10T14:41:57.301Z,3.28
2023-04-10T14:44:24.016Z,3.30
2023-04-10T14:46:50.743Z,3.20
2023-04-10T14:49:17.530Z,3.13
2023-04-10T14:51:45.534Z,3.25
2023-04-10T14:54:12.227Z,3.03
2023-04-10T14:56:38.972Z,2.70
2023-04-10T14:59:06.915Z,2.97
2023-04-10T15:01:35.379Z,2.90
2023-04-10T15:04:02.590Z,2.75
2023-04-10T15:06:29.529Z,2.85
2023-04-10T15:08:56.505Z,3.28
2023-04-10T15:11:23.592Z,2.58
2023-04-10T15:13:50.351Z,3.17
2023-04-10T15:16:17.459Z,2.97
2023-04-10T15:18:48.228Z,2.95
2023-04-10T15:21:15.690Z,2.80
2023-04-10T15:23:42.505Z,2.80
2023-04-10T15:26:13.957Z,3.03
2023-04-10T15:28:42.849Z,2.65
2023-04-10T15:31:10.802Z,3.28
2023-04-10T15:33:39.298Z,3.25
2023-04-10T15:36:07.616Z,2.55
2023-04-10T15:38:35.588Z,2.75
2023-04-10T15:41:09.019Z,2.83
2023-04-10T15:43:36.301Z,2.70
2023-04-10T15:46:03.595Z,3.05
2023-04-10T15:48:30.497Z,2.83
2023-04-10T15:50:59.576Z,2.88
2023-04-10T15:53:26.279Z,3.20
2023-04-10T15:55:52.994Z,3.30
2023-04-10T15:58:19.723Z,3.13
2023-04-10T16:00:46.478Z,3.45
2023-04-10T16:03:13.746Z,3.20
2023-04-10T16:05:40.924Z,3.17
2023-04-10T16:08:07.684Z,2.95
2023-04-10T16:10:35.555Z,3.22
2023-04-10T16:13:04.988Z,2.85
2023-04-10T16:15:35.600Z,2.42
2023-04-10T16:18:06.412Z,2.95
2023-04-10T16:20:33.388Z,2.95
2023-04-10T16:23:00.858Z,2.47
2023-04-10T16:25:27.961Z,2.67
2023-04-10T16:27:55.400Z,2.85
2023-04-10T16:30:22.651Z,2.45
2023-04-10T16:32:49.600Z,2.53
2023-04-10T16:35:18.095Z,2.20
2023-04-10T16:37:46.314Z,2.80
2023-04-10T16:40:13.429Z,2.60
2023-04-10T16:42:40.707Z,3.17
2023-04-10T16:45:08.449Z,2.38
2023-04-10T16:47:38.307Z,2.45
2023-04-10T16:50:05.859Z,2.70
2023-04-10T16:52:32.645Z,2.40
2023-04-10T16:54:59.437Z,2.92
2023-04-10T16:57:26.468Z,2.90
2023-04-10T16:59:59.417Z,2.80
2023-04-10T17:02:26.833Z,2.80
2023-04-10T17:04:56.854Z,3.15
2023-04-10T17:07:23.794Z,3.40
2023-04-10T17:09:51.844Z,3.63
2023-04-10T17:12:18.778Z,3.40
2023-04-10T17:14:45.617Z,3.05
2023-04-10T17:17:12.361Z,4.18
2023-04-10T17:19:39.096Z,4.00
2023-04-10T17:22:15.398Z,3.53
2023-04-10T17:24:43.887Z,4.30
2023-04-10T17:27:11.377Z,4.35
2023-04-10T17:29:38.981Z,4.43
2023-04-10T17:32:06.685Z,4.53
2023-04-10T17:34:33.961Z,4.15
2023-04-10T17:37:01.580Z,4.65
2023-04-10T17:39:28.423Z,5.05
2023-04-10T17:41:56.328Z,4.38
2023-04-10T17:44:23.404Z,4.82
2023-04-10T17:46:50.382Z,4.57
2023-04-10T17:49:17.297Z,4.10
2023-04-10T17:51:44.080Z,4.00
2023-04-10T17:54:10.958Z,5.05
2023-04-10T17:56:37.672Z,4.68
2023-04-10T17:59:04.511Z,5.00
2023-04-10T18:01:31.352Z,5.40
2023-04-10T18:03:59.268Z,4.93
2023-04-10T18:06:26.399Z,4.57
2023-04-10T18:08:53.517Z,3.92
2023-04-10T18:11:20.493Z,4.88
2023-04-10T18:13:47.468Z,3.78
2023-04-10T18:16:14.398Z,4.20
2023-04-10T18:18:42.377Z,5.00
2023-04-10T18:21:13.511Z,4.63
2023-04-10T18:23:40.822Z,4.13
2023-04-10T18:26:07.852Z,4.32
2023-04-10T18:28:35.811Z,4.43
2023-04-10T18:31:02.601Z,4.03
2023-04-10T18:33:29.438Z,4.18
2023-04-10T18:35:58.579Z,4.40
2023-04-10T18:38:28.283Z,4.70
2023-04-10T18:40:57.052Z,4.80
2023-04-10T18:43:27.727Z,4.60
2023-04-10T18:45:54.928Z,5.03
2023-04-10T18:48:22.385Z,4.68
2023-04-10T18:50:53.068Z,4.82
2023-04-10T18:53:20.834Z,5.45
2023-04-10T18:55:54.622Z,3.80
2023-04-10T18:58:22.027Z,4.55
2023-04-10T19:00:52.983Z,4.70
2023-04-10T19:03:19.866Z,4.65
2023-04-10T19:05:46.773Z,4.68
2023-04-10T19:08:14.757Z,4.82
2023-04-10T19:10:42.430Z,4.10
2023-04-10T19:13:11.615Z,4.63
2023-04-10T19:15:42.799Z,4.95
2023-04-10T19:18:10.177Z,5.22
2023-04-10T19:20:50.461Z,4.78
2023-04-10T19:23:18.893Z,5.78
2023-04-10T19:25:45.674Z,5.00
2023-04-10T19:28:12.403Z,4.72
2023-04-10T19:30:39.151Z,4.45
2023-04-10T19:33:06.155Z,3.95
2023-04-10T19:35:32.949Z,3.60
2023-04-10T19:37:59.707Z,3.28
2023-04-10T19:40:26.453Z,3.47
2023-04-10T19:42:53.498Z,3.63
2023-04-10T19:45:36.574Z,3.42
2023-04-10T19:48:03.966Z,3.55
2023-04-10T19:50:33.799Z,3.78
2023-04-10T19:53:11.096Z,3.30
2023-04-10T19:55:39.969Z,3.63
2023-04-10T19:58:10.488Z,3.47
2023-04-10T20:00:40.306Z,3.58
2023-04-10T20:03:08.384Z,3.45
2023-04-10T20:05:35.241Z,3.88
2023-04-10T20:08:02.051Z,4.45
2023-04-10T20:10:28.798Z,3.53
2023-04-10T20:12:55.580Z,3.00
2023-04-10T20:15:22.428Z,3.70
2023-04-10T20:17:49.407Z,3.15
2023-04-10T20:20:16.342Z,3.33
2023-04-10T20:22:43.321Z,2.97
2023-04-10T20:25:10.085Z,3.40
2023-04-10T20:27:36.948Z,3.42
2023-04-10T20:30:04.244Z,3.05
2023-04-10T20:32:31.073Z,3.00
2023-04-10T20:34:57.814Z,3.33
2023-04-10T20:37:27.302Z,2.92
2023-04-10T20:39:54.088Z,3.35
2023-04-10T20:42:20.966Z,3.47
2023-04-10T20:44:48.068Z,3.88
2023-04-10T20:47:15.395Z,3.90
2023-04-10T20:49:42.310Z,4.22
2023-04-10T20:52:09.053Z,4.00
2023-04-10T20:54:35.917Z,4.20
2023-04-10T20:57:05.922Z,3.97
2023-04-10T20:59:33.098Z,4.20
2023-04-10T21:02:00.059Z,3.72
2023-04-10T21:04:27.288Z,4.10
2023-04-10T21:06:54.151Z,3.83
2023-04-10T21:09:21.046Z,3.38
2023-04-10T21:11:47.852Z,3.80
2023-04-10T21:14:14.771Z,4.13
2023-04-10T21:16:42.652Z,4.53
2023-04-10T21:19:09.504Z,3.92
2023-04-10T21:21:36.410Z,4.90
2023-04-10T21:24:03.315Z,4.32
2023-04-10T21:26:30.000Z,4.38
2023-04-10T21:28:56.680Z,4.95
2023-04-10T21:31:23.495Z,4.30
2023-04-10T21:33:50.199Z,4.55
2023-04-10T21:36:17.031Z,4.28
2023-04-10T21:38:43.775Z,4.43
2023-04-10T21:41:10.529Z,4.78
2023-04-10T21:43:38.469Z,4.63
2023-04-10T21:46:06.191Z,4.50
2023-04-10T21:48:33.380Z,4.65
2023-04-10T21:51:01.534Z,4.60
2023-04-10T21:53:28.279Z,4.47
2023-04-10T21:55:57.532Z,4.55
2023-04-10T21:58:27.712Z,5.75
2023-04-10T22:00:56.968Z,5.07
2023-04-10T22:03:24.090Z,4.25
2023-04-10T22:05:51.035Z,4.72
2023-04-10T22:08:19.844Z,4.53
2023-04-10T22:10:48.103Z,4.45
2023-04-10T22:13:27.483Z,4.65
2023-04-10T22:15:57.549Z,4.53
2023-04-10T22:18:24.240Z,4.15
2023-04-10T22:20:50.968Z,4.63
2023-04-10T22:23:17.704Z,4.95
2023-04-10T22:25:44.568Z,4.53
2023-04-10T22:28:11.356Z,4.50
2023-04-10T22:30:38.054Z,4.93
2023-04-10T22:33:04.826Z,4.07
2023-04-10T22:35:32.445Z,4.97
2023-04-10T22:37:59.141Z,4.93
2023-04-10T22:40:26.076Z,4.85
2023-04-10T22:42:52.818Z,5.10
2023-04-10T22:45:19.891Z,4.88
2023-04-10T22:47:46.840Z,4.88
2023-04-10T22:50:13.722Z,4.32
2023-04-10T22:52:40.411Z,4.68
2023-04-10T22:55:08.306Z,5.03
2023-04-10T22:57:35.580Z,3.58
2023-04-10T23:00:02.785Z,4.35
2023-04-10T23:02:31.458Z,5.20
2023-04-10T23:04:58.539Z,5.00
2023-04-10T23:07:26.168Z,4.88
2023-04-10T23:09:53.093Z,5.40
2023-04-10T23:12:20.126Z,5.18
2023-04-10T23:14:46.855Z,4.63
2023-04-10T23:17:13.665Z,4.35
2023-04-10T23:19:40.475Z,4.95
2023-04-10T23:22:07.494Z,4.70
2023-04-10T23:24:34.330Z,5.05
2023-04-10T23:27:01.288Z,5.60
2023-04-10T23:29:28.066Z,5.25
2023-04-10T23:31:54.914Z,5.00
2023-04-10T23:34:21.616Z,5.97
2023-04-10T23:36:48.689Z,5.70
2023-04-10T23:39:15.557Z,2.85
2023-04-10T23:41:42.553Z,1.42
2023-04-10T23:44:09.398Z,1.35
2023-04-10T23:46:36.180Z,1.85
2023-04-10T23:49:03.216Z,1.67
2023-04-10T23:51:32.004Z,1.60
2023-04-10T23:53:59.214Z,1.52
2023-04-10T23:56:29.251Z,0.95
2023-04-10T23:58:56.713Z,1.13
